sensor_id;sensor_type;location;lat;lon;timestamp;pressure;altitude;pressure_sealevel;temperature;humidity
55759;BME280;41678;52.126;20.664;2023-02-02T00:03:52;99050.34;;;2.16;100.00
55759;BME280;41678;52.126;20.664;2023-02-02T00:09:14;99044.28;;;2.14;99.97
55759;BME280;41678;52.126;20.664;2023-02-02T00:14:34;99056.38;;;2.10;100.00
55759;BME280;41678;52.126;20.664;2023-02-02T00:19:54;99053.75;;;2.08;99.89
55759;BME280;41678;52.126;20.664;2023-02-02T00:25:14;99052.06;;;2.15;99.94
55759;BME280;41678;52.126;20.664;2023-02-02T00:30:34;99045.13;;;2.14;100.00
55759;BME280;41678;52.126;20.664;2023-02-02T00:35:53;99040.81;;;2.15;100.00
55759;BME280;41678;52.126;20.664;2023-02-02T00:41:15;99030.38;;;2.05;100.00
55759;BME280;41678;52.126;20.664;2023-02-02T00:46:38;99034.75;;;2.12;100.00
55759;BME280;41678;52.126;20.664;2023-02-02T00:51:59;99023.50;;;2.14;99.92
55759;BME280;41678;52.126;20.664;2023-02-02T00:57:18;99024.34;;;2.08;100.00
55759;BME280;41678;52.126;20.664;2023-02-02T01:02:38;99020.03;;;2.07;99.92
55759;BME280;41678;52.126;20.664;2023-02-02T01:07:59;99015.69;;;2.01;100.00
55759;BME280;41678;52.126;20.664;2023-02-02T01:13:18;99006.16;;;2.05;100.00
55759;BME280;41678;52.126;20.664;2023-02-02T01:18:38;99013.09;;;2.12;100.00
55759;BME280;41678;52.126;20.664;2023-02-02T01:23:59;99006.16;;;2.06;100.00
55759;BME280;41678;52.126;20.664;2023-02-02T01:29:19;99012.22;;;2.13;100.00
55759;BME280;41678;52.126;20.664;2023-02-02T01:34:40;99005.28;;;2.04;100.00
55759;BME280;41678;52.126;20.664;2023-02-02T01:40:00;99017.41;;;2.08;100.00
55759;BME280;41678;52.126;20.664;2023-02-02T01:45:24;99016.53;;;2.09;100.00
55759;BME280;41678;52.126;20.664;2023-02-02T01:50:49;99018.31;;;2.14;100.00
55759;BME280;41678;52.126;20.664;2023-02-02T01:56:16;99015.69;;;2.12;100.00
55759;BME280;41678;52.126;20.664;2023-02-02T02:01:37;99015.72;;;2.14;100.00
55759;BME280;41678;52.126;20.664;2023-02-02T02:06:58;99033.88;;;2.12;100.00
55759;BME280;41678;52.126;20.664;2023-02-02T02:12:19;99029.53;;;2.09;100.00
55759;BME280;41678;52.126;20.664;2023-02-02T02:35:33;99021.72;;;2.02;100.00
55759;BME280;41678;52.126;20.664;2023-02-02T02:40:59;99023.47;;;2.12;100.00
55759;BME280;41678;52.126;20.664;2023-02-02T02:46:22;99029.56;;;2.16;100.00
55759;BME280;41678;52.126;20.664;2023-02-02T03:13:31;99046.91;;;2.24;100.00
55759;BME280;41678;52.126;20.664;2023-02-02T03:18:51;99044.28;;;2.23;100.00
55759;BME280;41678;52.126;20.664;2023-02-02T03:24:10;99042.59;;;2.28;100.00
55759;BME280;41678;52.126;20.664;2023-02-02T03:29:30;99049.50;;;2.29;100.00
55759;BME280;41678;52.126;20.664;2023-02-02T03:34:50;99035.63;;;2.29;100.00
55759;BME280;41678;52.126;20.664;2023-02-02T03:40:10;99050.38;;;2.31;100.00
55759;BME280;41678;52.126;20.664;2023-02-02T03:45:29;99048.63;;;2.33;100.00
55759;BME280;41678;52.126;20.664;2023-02-02T03:50:50;99039.13;;;2.32;100.00
55759;BME280;41678;52.126;20.664;2023-02-02T03:56:10;99033.91;;;2.34;100.00
55759;BME280;41678;52.126;20.664;2023-02-02T04:01:29;99041.72;;;2.32;100.00
55759;BME280;41678;52.126;20.664;2023-02-02T04:06:49;99042.56;;;2.37;100.00
55759;BME280;41678;52.126;20.664;2023-02-02T04:12:09;99040.84;;;2.36;100.00
55759;BME280;41678;52.126;20.664;2023-02-02T04:17:29;99045.19;;;2.37;100.00
55759;BME280;41678;52.126;20.664;2023-02-02T04:22:48;99029.59;;;2.34;100.00
55759;BME280;41678;52.126;20.664;2023-02-02T04:28:08;99040.88;;;2.38;100.00
55759;BME280;41678;52.126;20.664;2023-02-02T04:33:28;99044.28;;;2.34;100.00
55759;BME280;41678;52.126;20.664;2023-02-02T04:38:48;99039.13;;;2.40;100.00
55759;BME280;41678;52.126;20.664;2023-02-02T04:44:15;99034.81;;;2.39;100.00
55759;BME280;41678;52.126;20.664;2023-02-02T04:49:35;99045.22;;;2.44;100.00
55759;BME280;41678;52.126;20.664;2023-02-02T04:54:54;99028.72;;;2.35;100.00
55759;BME280;41678;52.126;20.664;2023-02-02T05:00:14;99030.47;;;2.38;100.00
55759;BME280;41678;52.126;20.664;2023-02-02T05:05:33;99039.97;;;2.31;100.00
55759;BME280;41678;52.126;20.664;2023-02-02T05:10:53;99039.13;;;2.37;100.00
55759;BME280;41678;52.126;20.664;2023-02-02T05:16:12;99036.53;;;2.29;100.00
55759;BME280;41678;52.126;20.664;2023-02-02T05:21:32;99034.78;;;2.37;100.00
55759;BME280;41678;52.126;20.664;2023-02-02T05:26:52;99027.84;;;2.36;100.00
55759;BME280;41678;52.126;20.664;2023-02-02T05:32:16;99024.41;;;2.34;100.00
55759;BME280;41678;52.126;20.664;2023-02-02T05:37:36;99021.78;;;2.26;100.00
55759;BME280;41678;52.126;20.664;2023-02-02T05:42:55;99026.13;;;2.32;100.00
55759;BME280;41678;52.126;20.664;2023-02-02T05:48:15;99020.94;;;2.32;100.00
55759;BME280;41678;52.126;20.664;2023-02-02T05:53:35;99014.84;;;2.32;100.00
55759;BME280;41678;52.126;20.664;2023-02-02T05:58:55;99007.94;;;2.29;100.00
55759;BME280;41678;52.126;20.664;2023-02-02T06:04:14;99005.34;;;2.35;100.00
55759;BME280;41678;52.126;20.664;2023-02-02T06:09:37;99011.41;;;2.30;100.00
55759;BME280;41678;52.126;20.664;2023-02-02T06:14:56;99013.16;;;2.29;100.00
55759;BME280;41678;52.126;20.664;2023-02-02T06:20:16;98999.25;;;2.24;100.00
55759;BME280;41678;52.126;20.664;2023-02-02T06:25:36;99004.47;;;2.30;100.00
55759;BME280;41678;52.126;20.664;2023-02-02T06:31:02;99001.84;;;2.24;100.00
55759;BME280;41678;52.126;20.664;2023-02-02T06:36:24;98998.41;;;2.25;100.00
55759;BME280;41678;52.126;20.664;2023-02-02T06:41:44;98989.72;;;2.18;100.00
55759;BME280;41678;52.126;20.664;2023-02-02T06:47:05;98988.00;;;2.16;100.00
55759;BME280;41678;52.126;20.664;2023-02-02T06:52:25;98991.47;;;2.27;100.00
55759;BME280;41678;52.126;20.664;2023-02-02T06:57:45;98978.50;;;2.21;100.00
55759;BME280;41678;52.126;20.664;2023-02-02T07:03:04;98972.44;;;2.16;100.00
55759;BME280;41678;52.126;20.664;2023-02-02T07:08:24;98980.22;;;2.08;100.00
55759;BME280;41678;52.126;20.664;2023-02-02T07:13:45;98980.19;;;2.02;100.00
55759;BME280;41678;52.126;20.664;2023-02-02T07:19:05;98968.91;;;1.95;100.00
55759;BME280;41678;52.126;20.664;2023-02-02T07:24:25;98986.25;;;2.02;100.00
55759;BME280;41678;52.126;20.664;2023-02-02T07:29:46;98985.38;;;2.06;100.00
55759;BME280;41678;52.126;20.664;2023-02-02T07:35:05;98980.13;;;1.89;100.00
55759;BME280;41678;52.126;20.664;2023-02-02T07:40:25;98954.13;;;1.61;100.00
55759;BME280;41678;52.126;20.664;2023-02-02T07:45:44;98977.53;;;1.78;100.00
55759;BME280;41678;52.126;20.664;2023-02-02T07:51:06;98979.22;;;1.68;100.00
55759;BME280;41678;52.126;20.664;2023-02-02T07:56:26;98977.50;;;1.72;100.00
55759;BME280;41678;52.126;20.664;2023-02-02T08:01:46;98985.31;;;1.72;100.00
55759;BME280;41678;52.126;20.664;2023-02-02T08:07:05;98987.91;;;1.75;100.00
55759;BME280;41678;52.126;20.664;2023-02-02T08:12:25;98982.69;;;1.69;100.00
55759;BME280;41678;52.126;20.664;2023-02-02T08:17:45;98993.94;;;1.74;100.00
55759;BME280;41678;52.126;20.664;2023-02-02T08:23:08;98985.31;;;1.75;100.00
55759;BME280;41678;52.126;20.664;2023-02-02T08:28:34;99000.06;;;1.82;100.00
55759;BME280;41678;52.126;20.664;2023-02-02T08:33:55;99005.19;;;1.76;100.00
55759;BME280;41678;52.126;20.664;2023-02-02T08:39:16;99000.88;;;1.75;100.00
55759;BME280;41678;52.126;20.664;2023-02-02T08:44:36;99005.22;;;1.84;100.00
55759;BME280;41678;52.126;20.664;2023-02-02T08:49:55;99014.78;;;1.96;100.00
55759;BME280;41678;52.126;20.664;2023-02-02T08:55:15;99005.25;;;1.95;100.00
55759;BME280;41678;52.126;20.664;2023-02-02T09:00:35;99017.41;;;2.08;100.00
55759;BME280;41678;52.126;20.664;2023-02-02T09:05:54;99026.94;;;2.06;100.00
55759;BME280;41678;52.126;20.664;2023-02-02T09:11:16;99029.53;;;2.09;100.00
55759;BME280;41678;52.126;20.664;2023-02-02T09:16:37;99041.66;;;2.09;100.00
55759;BME280;41678;52.126;20.664;2023-02-02T09:22:31;99045.09;;;2.06;100.00
55759;BME280;41678;52.126;20.664;2023-02-02T09:27:50;99052.91;;;2.09;100.00
55759;BME280;41678;52.126;20.664;2023-02-02T09:33:10;99066.78;;;2.15;100.00
55759;BME280;41678;52.126;20.664;2023-02-02T09:38:29;99076.31;;;2.16;100.00
55759;BME280;41678;52.126;20.664;2023-02-02T09:56:03;99112.66;;;2.19;100.00
55759;BME280;41678;52.126;20.664;2023-02-02T10:01:37;99122.16;;;2.15;100.00
55759;BME280;41678;52.126;20.664;2023-02-02T10:07:41;99127.38;;;2.14;100.00
55759;BME280;41678;52.126;20.664;2023-02-02T10:13:06;99128.25;;;2.16;100.00
55759;BME280;41678;52.126;20.664;2023-02-02T10:18:50;99142.09;;;2.18;100.00
55759;BME280;41678;52.126;20.664;2023-02-02T10:24:19;99149.03;;;2.20;100.00
55759;BME280;41678;52.126;20.664;2023-02-02T10:45:58;99178.53;;;2.36;100.00
55759;BME280;41678;52.126;20.664;2023-02-02T10:51:28;99183.72;;;2.33;100.00
55759;BME280;41678;52.126;20.664;2023-02-02T10:56:50;99198.47;;;2.39;100.00
55759;BME280;41678;52.126;20.664;2023-02-02T11:02:12;99208.84;;;2.40;100.00
55759;BME280;41678;52.126;20.664;2023-02-02T11:07:32;99218.41;;;2.43;100.00
55759;BME280;41678;52.126;20.664;2023-02-02T11:12:52;99223.63;;;2.45;100.00
55759;BME280;41678;52.126;20.664;2023-02-02T11:18:33;99236.59;;;2.43;100.00
55759;BME280;41678;52.126;20.664;2023-02-02T11:24:00;99240.94;;;2.49;100.00
55759;BME280;41678;52.126;20.664;2023-02-02T11:29:42;99246.13;;;2.46;100.00
55759;BME280;41678;52.126;20.664;2023-02-02T11:40:39;99254.81;;;2.54;100.00
55759;BME280;41678;52.126;20.664;2023-02-02T11:46:03;99265.22;;;2.54;100.00
55759;BME280;41678;52.126;20.664;2023-02-02T11:51:25;99268.72;;;2.59;100.00
55759;BME280;41678;52.126;20.664;2023-02-02T11:56:53;99279.97;;;2.60;100.00
55759;BME280;41678;52.126;20.664;2023-02-02T12:02:21;99298.19;;;2.64;100.00
55759;BME280;41678;52.126;20.664;2023-02-02T12:07:42;99299.03;;;2.60;100.00
55759;BME280;41678;52.126;20.664;2023-02-02T12:35:23;99362.31;;;2.68;100.00
55759;BME280;41678;52.126;20.664;2023-02-02T12:41:12;99364.91;;;2.68;100.00
55759;BME280;41678;52.126;20.664;2023-02-02T12:47:02;99400.41;;;2.63;100.00
55759;BME280;41678;52.126;20.664;2023-02-02T12:52:43;99413.41;;;2.66;100.00
55759;BME280;41678;52.126;20.664;2023-02-02T12:58:18;99431.59;;;2.60;100.00
55759;BME280;41678;52.126;20.664;2023-02-02T13:04:27;99453.22;;;2.58;100.00
55759;BME280;41678;52.126;20.664;2023-02-02T13:09:34;99462.69;;;2.48;100.00
55759;BME280;41678;52.126;20.664;2023-02-02T13:15:00;99466.13;;;2.44;100.00
55759;BME280;41678;52.126;20.664;2023-02-02T13:20:28;99476.47;;;2.40;100.00
55759;BME280;41678;52.126;20.664;2023-02-02T13:25:53;99487.72;;;2.41;100.00
55759;BME280;41678;52.126;20.664;2023-02-02T13:31:20;99511.09;;;2.39;100.00
55759;BME280;41678;52.126;20.664;2023-02-02T13:36:43;99505.91;;;2.43;100.00
55759;BME280;41678;52.126;20.664;2023-02-02T13:42:31;99518.97;;;2.49;100.00
55759;BME280;41678;52.126;20.664;2023-02-02T13:48:01;99518.16;;;2.53;100.00
55759;BME280;41678;52.126;20.664;2023-02-02T14:04:23;99538.94;;;2.51;100.00
55759;BME280;41678;52.126;20.664;2023-02-02T14:09:47;99553.66;;;2.52;100.00
55759;BME280;41678;52.126;20.664;2023-02-02T14:15:07;99564.94;;;2.56;100.00
55759;BME280;41678;52.126;20.664;2023-02-02T14:20:39;99576.25;;;2.60;100.00
55759;BME280;41678;52.126;20.664;2023-02-02T14:26:04;99591.88;;;2.61;100.00
55759;BME280;41678;52.126;20.664;2023-02-02T14:31:51;99592.72;;;2.60;100.00
55759;BME280;41678;52.126;20.664;2023-02-02T14:49:09;99640.44;;;2.67;100.00
55759;BME280;41678;52.126;20.664;2023-02-02T14:54:33;99663.78;;;2.62;100.00
55759;BME280;41678;52.126;20.664;2023-02-02T14:59:55;99677.63;;;2.58;100.00
55759;BME280;41678;52.126;20.664;2023-02-02T15:16:18;99723.47;;;2.56;100.00
55759;BME280;41678;52.126;20.664;2023-02-02T15:21:42;99735.50;;;2.45;100.00
55759;BME280;41678;52.126;20.664;2023-02-02T15:27:04;99751.06;;;2.43;100.00
55759;BME280;41678;52.126;20.664;2023-02-02T15:32:28;99765.72;;;2.39;100.00
55759;BME280;41678;52.126;20.664;2023-02-02T15:37:58;99788.19;;;2.34;100.00
55759;BME280;41678;52.126;20.664;2023-02-02T15:43:26;99808.88;;;2.28;100.00
55759;BME280;41678;52.126;20.664;2023-02-02T15:48:46;99818.31;;;2.21;99.94
55759;BME280;41678;52.126;20.664;2023-02-02T15:54:31;99845.84;;;2.10;99.38
55759;BME280;41678;52.126;20.664;2023-02-02T15:59:51;99854.31;;;2.00;99.09
55759;BME280;41678;52.126;20.664;2023-02-02T16:05:24;99877.59;;;1.93;99.00
55759;BME280;41678;52.126;20.664;2023-02-02T16:11:22;99896.50;;;1.84;98.76
55759;BME280;41678;52.126;20.664;2023-02-02T16:16:42;99917.22;;;1.83;98.68
55759;BME280;41678;52.126;20.664;2023-02-02T16:22:05;99917.88;;;1.71;98.64
55759;BME280;41678;52.126;20.664;2023-02-02T16:27:28;99920.44;;;1.68;98.27
55759;BME280;41678;52.126;20.664;2023-02-02T16:32:48;99932.41;;;1.63;98.26
55759;BME280;41678;52.126;20.664;2023-02-02T16:38:13;99947.03;;;1.58;98.48
55759;BME280;41678;52.126;20.664;2023-02-02T16:43:34;99946.00;;;1.49;98.87
55759;BME280;41678;52.126;20.664;2023-02-02T16:48:56;99956.41;;;1.51;98.75
55759;BME280;41678;52.126;20.664;2023-02-02T16:54:19;99968.50;;;1.50;98.57
55759;BME280;41678;52.126;20.664;2023-02-02T16:59:39;99974.53;;;1.48;98.70
55759;BME280;41678;52.126;20.664;2023-02-02T17:05:14;99971.03;;;1.46;98.96
55759;BME280;41678;52.126;20.664;2023-02-02T17:10:37;99993.72;;;1.56;98.91
55759;BME280;41678;52.126;20.664;2023-02-02T17:15:58;100011.75;;;1.50;98.94
55759;BME280;41678;52.126;20.664;2023-02-02T17:21:20;100020.50;;;1.53;98.86
55759;BME280;41678;52.126;20.664;2023-02-02T17:26:41;100045.66;;;1.59;98.35
55759;BME280;41678;52.126;20.664;2023-02-02T17:32:01;100048.88;;;1.46;99.04
55759;BME280;41678;52.126;20.664;2023-02-02T17:37:21;100065.44;;;1.52;99.01
55759;BME280;41678;52.126;20.664;2023-02-02T17:42:42;100070.69;;;1.55;98.50
55759;BME280;41678;52.126;20.664;2023-02-02T17:48:04;100085.31;;;1.52;98.72
55759;BME280;41678;52.126;20.664;2023-02-02T17:53:24;100106.06;;;1.52;98.73
55759;BME280;41678;52.126;20.664;2023-02-02T17:58:44;100124.28;;;1.53;98.92
55759;BME280;41678;52.126;20.664;2023-02-02T18:04:04;100131.13;;;1.50;99.06
55759;BME280;41678;52.126;20.664;2023-02-02T18:09:24;100139.75;;;1.50;98.86
55759;BME280;41678;52.126;20.664;2023-02-02T18:14:44;100148.44;;;1.51;99.29
55759;BME280;41678;52.126;20.664;2023-02-02T18:20:04;100157.09;;;1.51;98.61
55759;BME280;41678;52.126;20.664;2023-02-02T18:25:24;100169.16;;;1.49;98.96
55759;BME280;41678;52.126;20.664;2023-02-02T18:30:45;100176.94;;;1.49;98.90
55759;BME280;41678;52.126;20.664;2023-02-02T18:36:11;100186.38;;;1.46;99.09
55759;BME280;41678;52.126;20.664;2023-02-02T18:41:31;100187.22;;;1.45;99.00
55759;BME280;41678;52.126;20.664;2023-02-02T18:46:51;100201.00;;;1.44;98.77
55759;BME280;41678;52.126;20.664;2023-02-02T18:52:11;100208.84;;;1.45;99.03
55759;BME280;41678;52.126;20.664;2023-02-02T18:57:31;100227.81;;;1.42;99.18
55759;BME280;41678;52.126;20.664;2023-02-02T19:02:51;100242.66;;;1.48;98.88
55759;BME280;41678;52.126;20.664;2023-02-02T19:08:10;100249.53;;;1.46;98.64
55759;BME280;41678;52.126;20.664;2023-02-02T19:13:30;100259.78;;;1.41;98.85
55759;BME280;41678;52.126;20.664;2023-02-02T19:18:50;100271.13;;;1.45;99.11
55759;BME280;41678;52.126;20.664;2023-02-02T19:32:16;100295.25;;;1.41;99.20
55759;BME280;41678;52.126;20.664;2023-02-02T19:37:40;100303.94;;;1.43;99.06
55759;BME280;41678;52.126;20.664;2023-02-02T19:43:20;100321.19;;;1.41;98.99
55759;BME280;41678;52.126;20.664;2023-02-02T19:48:41;100332.34;;;1.38;99.42
55759;BME280;41678;52.126;20.664;2023-02-02T19:54:01;100344.50;;;1.39;99.07
55759;BME280;41678;52.126;20.664;2023-02-02T19:59:24;100357.53;;;1.42;99.11
55759;BME280;41678;52.126;20.664;2023-02-02T20:04:44;100367.81;;;1.38;99.06
55759;BME280;41678;52.126;20.664;2023-02-02T20:10:22;100380.78;;;1.38;99.25
55759;BME280;41678;52.126;20.664;2023-02-02T20:15:42;100390.22;;;1.36;99.00
55759;BME280;41678;52.126;20.664;2023-02-02T20:21:06;100394.34;;;1.27;99.01
55759;BME280;41678;52.126;20.664;2023-02-02T20:26:33;100405.63;;;1.30;98.73
55759;BME280;41678;52.126;20.664;2023-02-02T20:31:55;100424.53;;;1.25;98.98
55759;BME280;41678;52.126;20.664;2023-02-02T20:37:28;100424.25;;;1.16;98.61
55759;BME280;41678;52.126;20.664;2023-02-02T20:42:48;100433.63;;;1.11;99.10
55759;BME280;41678;52.126;20.664;2023-02-02T20:48:07;100445.56;;;1.06;98.55
55759;BME280;41678;52.126;20.664;2023-02-02T20:53:28;100466.22;;;1.03;98.65
55759;BME280;41678;52.126;20.664;2023-02-02T20:58:48;100467.66;;;0.93;99.03
55759;BME280;41678;52.126;20.664;2023-02-02T21:04:08;100487.41;;;0.89;98.91
55759;BME280;41678;52.126;20.664;2023-02-02T21:09:28;100492.56;;;0.88;98.70
55759;BME280;41678;52.126;20.664;2023-02-02T21:14:47;100500.16;;;0.81;98.44
55759;BME280;41678;52.126;20.664;2023-02-02T21:20:07;100511.50;;;0.85;98.68
55759;BME280;41678;52.126;20.664;2023-02-02T21:25:28;100519.28;;;0.85;99.02
55759;BME280;41678;52.126;20.664;2023-02-02T21:30:51;100518.25;;;0.80;98.31
55759;BME280;41678;52.126;20.664;2023-02-02T21:36:31;100535.47;;;0.78;98.85
55759;BME280;41678;52.126;20.664;2023-02-02T21:47:49;100554.22;;;0.70;98.55
55759;BME280;41678;52.126;20.664;2023-02-02T21:58:35;100569.53;;;0.63;98.32
55759;BME280;41678;52.126;20.664;2023-02-02T22:04:00;100574.69;;;0.61;98.19
55759;BME280;41678;52.126;20.664;2023-02-02T22:09:29;100585.84;;;0.60;98.13
55759;BME280;41678;52.126;20.664;2023-02-02T22:14:59;100596.94;;;0.56;98.29
55759;BME280;41678;52.126;20.664;2023-02-02T22:20:31;100601.38;;;0.59;98.75
55759;BME280;41678;52.126;20.664;2023-02-02T22:25:55;100597.78;;;0.55;98.76
55759;BME280;41678;52.126;20.664;2023-02-02T22:31:14;100596.22;;;0.60;98.86
55759;BME280;41678;52.126;20.664;2023-02-02T22:36:34;100600.53;;;0.60;98.39
55759;BME280;41678;52.126;20.664;2023-02-02T22:41:54;100607.22;;;0.53;98.96
55759;BME280;41678;52.126;20.664;2023-02-02T22:47:13;100618.56;;;0.56;98.67
55759;BME280;41678;52.126;20.664;2023-02-02T22:52:32;100617.56;;;0.53;98.98
55759;BME280;41678;52.126;20.664;2023-02-02T22:57:52;100631.47;;;0.55;98.87
55759;BME280;41678;52.126;20.664;2023-02-02T23:03:12;100638.09;;;0.47;98.54
55759;BME280;41678;52.126;20.664;2023-02-02T23:08:31;100637.28;;;0.48;98.99
55759;BME280;41678;52.126;20.664;2023-02-02T23:13:52;100660.69;;;0.51;98.77
55759;BME280;41678;52.126;20.664;2023-02-02T23:19:11;100653.59;;;0.45;98.48
55759;BME280;41678;52.126;20.664;2023-02-02T23:24:31;100672.47;;;0.42;98.65
55759;BME280;41678;52.126;20.664;2023-02-02T23:29:51;100672.44;;;0.41;98.22
55759;BME280;41678;52.126;20.664;2023-02-02T23:35:11;100678.59;;;0.45;98.59
55759;BME280;41678;52.126;20.664;2023-02-02T23:40:30;100675.97;;;0.43;98.64
55759;BME280;41678;52.126;20.664;2023-02-02T23:45:49;100683.66;;;0.41;98.30
55759;BME280;41678;52.126;20.664;2023-02-02T23:51:09;100681.91;;;0.40;98.52
55759;BME280;41678;52.126;20.664;2023-02-02T23:56:29;100683.66;;;0.41;98.34
